Arrowsic, Maine
Current Conditions -  °F | °C
As of 10:53 AM on Sunday 23 Nov 2014 (Local Time) from KIWI Reporting Station
Few Clouds Few Clouds  
Wind Chill: 10°   Ceiling: Unl
Heat Index: 10°   Visibility: 10mi
Dew Point:   Wind: 7mph
Humidity: 59%   Direction: 210°SSW
Pressure: 30.09"   Gusts: NA
Location:  43.8797°N, 69.8408°W
Report Text: KIWI 231553Z AUTO 21006KT 10SM FEW075 10/02 A3009 RMK AO2 SLP188 T01000022
Loading
Personal Weather Stations






























Interactive Weather Map New forecast layout! Learn more

10-Day Weather Forecast

Advertisements
Track Severe Weather on mobile